createdAt,value
2023-04-14T00:00:00.226Z,87.03
2023-04-14T00:02:27.324Z,87.08
2023-04-14T00:04:54.606Z,87.09
2023-04-14T00:07:21.519Z,86.92
2023-04-14T00:09:48.843Z,86.88
2023-04-14T00:12:15.688Z,86.63
2023-04-14T00:14:42.976Z,86.54
2023-04-14T00:17:10.020Z,86.58
2023-04-14T00:19:38.820Z,86.43
2023-04-14T00:22:05.822Z,86.28
2023-04-14T00:24:40.145Z,86.17
2023-04-14T00:27:06.921Z,85.99
2023-04-14T00:29:34.281Z,85.80
2023-04-14T00:32:02.978Z,85.74
2023-04-14T00:34:31.971Z,85.77
2023-04-14T00:36:58.736Z,85.71
2023-04-14T00:39:26.123Z,85.63
2023-04-14T00:41:53.058Z,85.29
2023-04-14T00:44:19.942Z,85.37
2023-04-14T00:46:46.794Z,85.14
2023-04-14T00:49:14.774Z,85.39
2023-04-14T00:51:41.639Z,85.02
2023-04-14T00:54:08.392Z,85.10
2023-04-14T00:56:35.475Z,85.41
2023-04-14T00:59:07.915Z,85.71
2023-04-14T01:01:39.946Z,85.72
2023-04-14T01:04:08.354Z,86.03
2023-04-14T01:06:36.387Z,86.24
2023-04-14T01:09:03.817Z,86.20
2023-04-14T01:11:45.812Z,86.58
2023-04-14T01:14:41.879Z,86.78
2023-04-14T01:17:27.802Z,87.01
2023-04-14T01:20:22.954Z,87.02
2023-04-14T01:23:15.553Z,87.25
2023-04-14T01:26:09.292Z,87.94
2023-04-14T01:28:49.024Z,87.82
2023-04-14T01:31:18.993Z,87.92
2023-04-14T01:33:48.729Z,87.90
2023-04-14T01:36:21.908Z,88.00
2023-04-14T01:38:49.925Z,87.89
2023-04-14T01:41:17.180Z,87.80
2023-04-14T01:43:45.031Z,87.62
2023-04-14T01:46:14.364Z,87.49
2023-04-14T01:48:42.020Z,87.35
2023-04-14T01:51:08.940Z,87.11
2023-04-14T01:53:37.787Z,87.31
2023-04-14T01:56:05.824Z,87.17
2023-04-14T01:58:33.331Z,87.11
2023-04-14T02:01:00.141Z,87.20
2023-04-14T02:03:27.750Z,87.06
2023-04-14T02:05:56.692Z,86.97
2023-04-14T02:08:23.998Z,86.86
2023-04-14T02:10:52.568Z,86.90
2023-04-14T02:13:26.623Z,86.90
2023-04-14T02:15:53.597Z,86.90
2023-04-14T02:18:22.083Z,87.08
2023-04-14T02:20:52.096Z,87.22
2023-04-14T02:23:27.789Z,87.20
2023-04-14T02:25:56.857Z,87.38
2023-04-14T02:28:28.469Z,87.38
2023-04-14T02:30:55.971Z,87.39
2023-04-14T02:33:31.102Z,87.48
2023-04-14T02:36:09.749Z,87.40
2023-04-14T02:38:46.397Z,87.55
2023-04-14T02:41:23.299Z,87.75
2023-04-14T02:43:56.254Z,87.75
2023-04-14T02:46:24.036Z,87.71
2023-04-14T02:48:51.577Z,87.69
2023-04-14T02:51:18.527Z,87.85
2023-04-14T02:53:45.919Z,87.91
2023-04-14T02:56:19.294Z,88.09
2023-04-14T02:58:49.605Z,87.99
2023-04-14T03:01:18.443Z,88.27
2023-04-14T03:03:48.651Z,88.20
2023-04-14T03:06:16.177Z,88.56
2023-04-14T03:08:43.035Z,88.43
2023-04-14T03:11:11.710Z,88.62
2023-04-14T03:13:39.729Z,88.76
2023-04-14T03:16:07.225Z,88.85
2023-04-14T03:18:36.568Z,89.11
2023-04-14T03:21:04.462Z,89.15
2023-04-14T03:23:32.767Z,89.46
2023-04-14T03:26:05.579Z,89.40
2023-04-14T03:28:33.664Z,89.63
2023-04-14T03:31:03.997Z,89.69
2023-04-14T03:33:40.657Z,89.73
2023-04-14T03:36:09.890Z,89.99
2023-04-14T03:38:36.913Z,90.13
2023-04-14T03:41:05.689Z,90.06
2023-04-14T03:43:33.456Z,90.24
2023-04-14T03:46:10.491Z,90.45
2023-04-14T03:48:41.677Z,90.45
2023-04-14T03:51:10.205Z,90.56
2023-04-14T03:53:37.063Z,90.40
2023-04-14T03:56:05.766Z,90.78
2023-04-14T03:58:34.237Z,90.71
2023-04-14T04:01:01.231Z,90.80
2023-04-14T04:03:30.101Z,91.06
2023-04-14T04:06:00.264Z,91.15
2023-04-14T04:08:27.269Z,91.25
2023-04-14T04:10:54.980Z,91.48
2023-04-14T04:13:22.878Z,91.41
2023-04-14T04:15:54.609Z,91.48
2023-04-14T04:18:22.763Z,91.65
2023-04-14T04:20:49.756Z,91.63
2023-04-14T04:23:18.275Z,91.75
2023-04-14T04:25:45.323Z,91.75
2023-04-14T04:28:18.307Z,91.84
2023-04-14T04:30:45.784Z,92.15
2023-04-14T04:33:14.109Z,92.12
2023-04-14T04:35:41.921Z,92.15
2023-04-14T04:38:10.790Z,92.14
2023-04-14T04:40:38.641Z,92.17
2023-04-14T04:43:13.212Z,92.31
2023-04-14T04:46:03.043Z,92.24
2023-04-14T04:48:30.853Z,92.09
2023-04-14T04:50:57.707Z,92.28
2023-04-14T04:53:24.840Z,92.30
2023-04-14T04:55:53.867Z,92.45
2023-04-14T04:58:20.873Z,92.53
2023-04-14T05:00:47.914Z,92.53
2023-04-14T05:03:18.804Z,92.61
2023-04-14T05:05:46.402Z,92.56
2023-04-14T05:08:15.083Z,92.71
2023-04-14T05:10:42.276Z,92.82
2023-04-14T05:13:09.712Z,92.67
2023-04-14T05:15:37.885Z,92.41
2023-04-14T05:18:07.313Z,92.52
2023-04-14T05:20:35.203Z,92.51
2023-04-14T05:23:02.130Z,92.55
2023-04-14T05:25:29.047Z,92.63
2023-04-14T05:27:57.265Z,92.65
2023-04-14T05:30:24.296Z,92.59
2023-04-14T05:32:52.027Z,92.75
2023-04-14T05:35:19.851Z,92.69
2023-04-14T05:37:47.690Z,92.70
2023-04-14T05:40:15.006Z,92.55
2023-04-14T05:42:42.476Z,92.73
2023-04-14T05:45:09.737Z,92.95
2023-04-14T05:47:39.108Z,92.74
2023-04-14T05:50:07.474Z,92.58
2023-04-14T05:52:34.368Z,92.39
2023-04-14T05:55:02.154Z,92.59
2023-04-14T05:57:30.192Z,92.80
2023-04-14T05:59:58.331Z,92.84
2023-04-14T06:02:26.172Z,92.81
2023-04-14T06:04:53.567Z,92.88
2023-04-14T06:07:20.530Z,92.95
2023-04-14T06:09:47.734Z,92.81
2023-04-14T06:12:15.193Z,92.84
2023-04-14T06:14:45.987Z,93.01
2023-04-14T06:17:17.461Z,93.10
2023-04-14T06:19:46.341Z,93.11
2023-04-14T06:22:18.685Z,93.17
2023-04-14T06:24:45.828Z,93.21
2023-04-14T06:27:14.061Z,93.28
2023-04-14T06:29:41.653Z,93.07
2023-04-14T06:32:08.668Z,93.30
2023-04-14T06:34:40.684Z,93.20
2023-04-14T06:37:07.570Z,93.44
2023-04-14T06:39:35.697Z,93.42
2023-04-14T06:42:04.529Z,93.42
2023-04-14T06:44:31.334Z,93.48
2023-04-14T06:46:58.609Z,93.32
2023-04-14T06:49:27.003Z,93.28
2023-04-14T06:51:54.519Z,93.49
2023-04-14T06:54:21.672Z,93.35
2023-04-14T06:56:48.762Z,93.38
2023-04-14T06:59:16.143Z,93.30
2023-04-14T07:01:45.539Z,93.37
2023-04-14T07:04:14.114Z,93.36
2023-04-14T07:06:41.400Z,93.32
2023-04-14T07:09:09.742Z,93.32
2023-04-14T07:11:36.513Z,93.48
2023-04-14T07:14:03.738Z,93.42
2023-04-14T07:16:31.198Z,93.47
2023-04-14T07:18:58.224Z,93.54
2023-04-14T07:21:25.065Z,93.54
2023-04-14T07:23:54.249Z,93.52
2023-04-14T07:26:22.026Z,93.37
2023-04-14T07:28:49.015Z,93.59
2023-04-14T07:31:21.864Z,93.70
2023-04-14T07:33:49.356Z,93.67
2023-04-14T07:36:16.530Z,93.49
2023-04-14T07:38:43.402Z,93.19
2023-04-14T07:41:10.407Z,93.13
2023-04-14T07:43:39.435Z,93.19
2023-04-14T07:46:08.016Z,93.01
2023-04-14T07:48:36.084Z,92.77
2023-04-14T07:51:08.718Z,92.98
2023-04-14T07:53:41.725Z,92.74
2023-04-14T07:56:08.589Z,92.62
2023-04-14T07:58:39.549Z,92.57
2023-04-14T08:01:07.577Z,92.59
2023-04-14T08:03:36.640Z,92.59
2023-04-14T08:06:06.214Z,92.64
2023-04-14T08:08:34.567Z,92.85
2023-04-14T08:11:01.571Z,92.78
2023-04-14T08:13:28.791Z,92.91
2023-04-14T08:15:56.483Z,92.93
2023-04-14T08:18:25.209Z,93.07
2023-04-14T08:20:52.370Z,92.66
2023-04-14T08:23:20.737Z,92.12
2023-04-14T08:25:48.106Z,91.53
2023-04-14T08:28:15.464Z,91.23
2023-04-14T08:30:48.776Z,90.84
2023-04-14T08:33:19.159Z,90.59
2023-04-14T08:35:45.934Z,90.40
2023-04-14T08:38:23.597Z,90.13
2023-04-14T08:40:55.888Z,89.89
2023-04-14T08:43:23.089Z,90.05
2023-04-14T08:45:51.415Z,89.62
2023-04-14T08:48:22.981Z,89.13
2023-04-14T08:50:58.809Z,88.66
2023-04-14T08:53:31.798Z,88.63
2023-04-14T08:55:59.654Z,88.51
2023-04-14T08:58:26.470Z,88.68
2023-04-14T09:00:53.874Z,88.80
2023-04-14T09:03:22.293Z,88.97
2023-04-14T09:05:49.248Z,88.62
2023-04-14T09:08:20.499Z,88.59
2023-04-14T09:10:48.165Z,88.69
2023-04-14T09:13:16.109Z,88.63
2023-04-14T09:15:42.925Z,88.28
2023-04-14T09:18:13.628Z,88.25
2023-04-14T09:20:47.223Z,87.90
2023-04-14T09:23:34.089Z,87.50
2023-04-14T09:26:02.850Z,87.09
2023-04-14T09:28:31.434Z,86.46
2023-04-14T09:30:58.432Z,85.81
2023-04-14T09:33:25.863Z,85.20
2023-04-14T09:35:53.116Z,84.96
2023-04-14T09:38:38.733Z,85.16
2023-04-14T09:41:07.204Z,85.14
2023-04-14T09:43:34.271Z,84.91
2023-04-14T09:46:07.133Z,84.23
2023-04-14T09:48:36.894Z,83.56
2023-04-14T09:51:06.416Z,83.33
2023-04-14T09:53:35.588Z,82.91
2023-04-14T09:56:11.725Z,82.36
2023-04-14T09:58:42.427Z,82.06
2023-04-14T10:01:18.772Z,82.02
2023-04-14T10:03:48.001Z,81.83
2023-04-14T10:06:23.136Z,81.17
2023-04-14T10:08:52.437Z,81.12
2023-04-14T10:11:22.402Z,81.08
2023-04-14T10:13:55.585Z,81.16
2023-04-14T10:16:24.275Z,80.88
2023-04-14T10:18:52.560Z,80.99
2023-04-14T10:21:22.874Z,80.74
2023-04-14T10:23:50.620Z,80.74
2023-04-14T10:26:18.636Z,80.75
2023-04-14T10:28:48.746Z,80.64
2023-04-14T10:31:20.525Z,80.80
2023-04-14T10:33:48.164Z,80.64
2023-04-14T10:36:25.548Z,80.66
2023-04-14T10:39:03.077Z,80.93
2023-04-14T10:41:46.863Z,80.95
2023-04-14T10:44:23.222Z,80.87
2023-04-14T10:46:50.872Z,80.97
2023-04-14T10:49:17.687Z,81.00
2023-04-14T10:51:44.804Z,81.24
2023-04-14T10:54:19.487Z,81.36
2023-04-14T10:57:10.547Z,81.01
2023-04-14T10:59:45.644Z,80.92
2023-04-14T11:02:32.621Z,81.37
2023-04-14T11:04:59.825Z,81.41
2023-04-14T11:07:28.060Z,81.50
2023-04-14T11:10:21.554Z,81.60
2023-04-14T11:12:49.671Z,81.44
2023-04-14T11:15:18.127Z,81.59
2023-04-14T11:17:45.472Z,81.53
2023-04-14T11:20:16.835Z,81.32
2023-04-14T11:22:48.220Z,81.38
2023-04-14T11:25:17.441Z,81.15
2023-04-14T11:27:44.727Z,80.90
2023-04-14T11:30:16.370Z,80.82
2023-04-14T11:32:45.657Z,80.82
2023-04-14T11:35:13.571Z,81.09
2023-04-14T11:37:40.464Z,80.92
2023-04-14T11:40:09.370Z,80.54
2023-04-14T11:42:41.921Z,80.60
2023-04-14T11:45:09.722Z,80.38
2023-04-14T11:47:36.589Z,79.98
2023-04-14T11:50:05.108Z,79.80
2023-04-14T11:52:33.965Z,79.62
2023-04-14T11:55:01.420Z,79.51
2023-04-14T11:57:29.110Z,79.16
2023-04-14T11:59:56.570Z,79.17
2023-04-14T12:02:23.576Z,78.94
2023-04-14T12:04:51.556Z,78.74
2023-04-14T12:07:19.432Z,78.66
2023-04-14T12:09:57.259Z,78.50
2023-04-14T12:12:28.721Z,78.43
2023-04-14T12:14:56.037Z,78.29
2023-04-14T12:17:31.038Z,78.31
2023-04-14T12:19:59.295Z,78.30
2023-04-14T12:22:29.669Z,78.37
2023-04-14T12:25:00.505Z,78.21
2023-04-14T12:27:28.003Z,78.13
2023-04-14T12:29:55.413Z,78.06
2023-04-14T12:32:22.562Z,78.00
2023-04-14T12:34:57.981Z,77.40
2023-04-14T12:37:26.057Z,76.64
2023-04-14T12:39:57.734Z,76.71
2023-04-14T12:42:28.508Z,76.71
2023-04-14T12:44:57.155Z,76.71
2023-04-14T12:47:28.503Z,76.90
2023-04-14T12:49:56.454Z,77.11
2023-04-14T12:52:39.533Z,77.39
2023-04-14T12:55:07.259Z,77.38
2023-04-14T12:57:35.410Z,77.63
2023-04-14T13:00:04.274Z,77.66
2023-04-14T13:02:35.972Z,77.90
2023-04-14T13:05:04.386Z,78.02
2023-04-14T13:07:32.558Z,78.03
2023-04-14T13:10:00.705Z,78.33
2023-04-14T13:12:28.078Z,78.40
2023-04-14T13:14:55.706Z,78.38
2023-04-14T13:17:23.653Z,78.06
2023-04-14T13:19:51.635Z,77.90
2023-04-14T13:22:20.797Z,77.66
2023-04-14T13:24:49.372Z,77.72
2023-04-14T13:27:17.123Z,77.72
2023-04-14T13:29:46.953Z,77.55
2023-04-14T13:32:14.885Z,77.66
2023-04-14T13:34:42.696Z,77.79
2023-04-14T13:37:09.968Z,77.89
2023-04-14T13:39:37.346Z,77.48
2023-04-14T13:42:04.188Z,77.40
2023-04-14T13:44:33.928Z,77.18
2023-04-14T13:47:02.225Z,76.83
2023-04-14T13:49:30.807Z,76.76
2023-04-14T13:51:58.290Z,76.77
2023-04-14T13:54:25.792Z,76.77
2023-04-14T13:56:52.968Z,76.38
2023-04-14T13:59:22.375Z,76.37
2023-04-14T14:01:50.032Z,76.30
2023-04-14T14:04:18.103Z,76.12
2023-04-14T14:06:45.965Z,76.24
2023-04-14T14:09:13.064Z,76.65
2023-04-14T14:11:46.004Z,76.65
2023-04-14T14:14:14.255Z,76.74
2023-04-14T14:16:41.400Z,76.52
2023-04-14T14:19:17.106Z,76.48
2023-04-14T14:21:45.112Z,76.38
2023-04-14T14:24:11.964Z,76.29
2023-04-14T14:26:39.333Z,75.75
2023-04-14T14:29:07.042Z,75.17
2023-04-14T14:31:34.927Z,74.88
2023-04-14T14:34:02.014Z,74.50
2023-04-14T14:36:29.825Z,74.01
2023-04-14T14:38:57.011Z,73.74
2023-04-14T14:41:23.893Z,73.68
2023-04-14T14:43:50.685Z,74.10
2023-04-14T14:46:22.692Z,74.46
2023-04-14T14:48:50.384Z,74.66
2023-04-14T14:51:17.703Z,74.98
2023-04-14T14:53:44.905Z,75.38
2023-04-14T14:56:11.896Z,75.60
2023-04-14T14:58:38.904Z,75.96
2023-04-14T15:01:08.698Z,76.02
2023-04-14T15:03:36.750Z,76.38
2023-04-14T15:06:05.572Z,76.71
2023-04-14T15:08:32.666Z,77.01
2023-04-14T15:11:00.267Z,77.42
2023-04-14T15:13:27.466Z,77.39
2023-04-14T15:15:54.407Z,77.59
2023-04-14T15:18:26.576Z,77.89
2023-04-14T15:20:55.577Z,77.88
2023-04-14T15:23:22.378Z,78.29
2023-04-14T15:25:49.520Z,78.28
2023-04-14T15:28:21.189Z,78.65
2023-04-14T15:30:49.208Z,78.92
2023-04-14T15:33:16.916Z,78.85
2023-04-14T15:35:50.904Z,79.02
2023-04-14T15:38:17.869Z,79.21
2023-04-14T15:40:45.608Z,79.26
2023-04-14T15:43:13.570Z,79.36
2023-04-14T15:45:41.638Z,79.32
2023-04-14T15:48:08.432Z,79.39
2023-04-14T15:50:44.883Z,79.64
2023-04-14T15:53:12.284Z,79.85
2023-04-14T15:55:40.047Z,79.84
2023-04-14T15:58:08.807Z,79.94
2023-04-14T16:00:35.876Z,79.84
2023-04-14T16:03:03.925Z,79.96
2023-04-14T16:05:34.530Z,80.04
2023-04-14T16:08:01.625Z,79.96
2023-04-14T16:10:29.018Z,80.14
2023-04-14T16:12:55.913Z,80.06
2023-04-14T16:15:24.568Z,80.19
2023-04-14T16:17:53.229Z,80.25
2023-04-14T16:20:20.279Z,80.39
2023-04-14T16:22:48.738Z,80.35
2023-04-14T16:25:15.795Z,80.44
2023-04-14T16:27:43.000Z,80.29
2023-04-14T16:30:11.798Z,80.53
2023-04-14T16:32:50.828Z,80.65
2023-04-14T16:35:17.688Z,80.82
2023-04-14T16:37:48.407Z,80.97
2023-04-14T16:40:16.017Z,81.00
2023-04-14T16:42:43.738Z,81.14
2023-04-14T16:45:11.888Z,81.15
2023-04-14T16:47:39.006Z,81.25
2023-04-14T16:50:06.551Z,81.41
2023-04-14T16:52:34.559Z,81.39
2023-04-14T16:55:01.856Z,81.39
2023-04-14T16:57:29.154Z,81.27
2023-04-14T16:59:56.807Z,81.11
2023-04-14T17:02:24.049Z,80.94
2023-04-14T17:04:51.286Z,81.00
2023-04-14T17:07:21.121Z,81.23
2023-04-14T17:09:51.800Z,81.16
2023-04-14T17:12:18.579Z,80.79
2023-04-14T17:14:52.429Z,80.67
2023-04-14T17:17:19.438Z,80.75
2023-04-14T17:19:46.321Z,80.99
2023-04-14T17:22:14.964Z,81.06
2023-04-14T17:24:42.340Z,81.10
2023-04-14T17:27:09.620Z,81.20
2023-04-14T17:29:36.949Z,81.29
2023-04-14T17:32:04.341Z,81.44
2023-04-14T17:34:32.061Z,81.53
2023-04-14T17:36:58.962Z,81.51
2023-04-14T17:39:26.694Z,81.56
2023-04-14T17:41:55.619Z,81.70
2023-04-14T17:44:30.390Z,81.78
2023-04-14T17:47:00.426Z,81.78
2023-04-14T17:49:27.851Z,81.99
2023-04-14T17:52:00.745Z,81.95
2023-04-14T17:54:29.448Z,82.00
2023-04-14T17:56:56.351Z,82.05
2023-04-14T17:59:24.316Z,82.22
2023-04-14T18:01:51.215Z,82.28
2023-04-14T18:04:18.516Z,82.39
2023-04-14T18:06:45.963Z,82.36
2023-04-14T18:09:12.797Z,82.55
2023-04-14T18:11:41.376Z,82.44
2023-04-14T18:14:08.176Z,82.47
2023-04-14T18:16:36.826Z,82.66
2023-04-14T18:19:05.413Z,82.45
2023-04-14T18:21:32.242Z,82.63
2023-04-14T18:26:36.207Z,82.74
2023-04-14T18:29:04.951Z,82.69
2023-04-14T18:31:32.063Z,82.82
2023-04-14T18:34:19.340Z,82.90
2023-04-14T18:36:47.012Z,82.83
2023-04-14T18:39:18.206Z,83.04
2023-04-14T18:41:48.540Z,83.29
2023-04-14T18:44:16.926Z,83.23
2023-04-14T18:46:44.165Z,83.43
2023-04-14T18:49:13.105Z,83.38
2023-04-14T18:51:39.975Z,83.16
2023-04-14T18:54:08.334Z,83.14
2023-04-14T18:56:36.622Z,83.18
2023-04-14T18:59:03.903Z,83.23
2023-04-14T19:01:32.401Z,83.25
2023-04-14T19:04:01.212Z,83.36
2023-04-14T19:06:28.747Z,83.28
2023-04-14T19:08:56.013Z,83.26
2023-04-14T19:11:24.680Z,83.18
2023-04-14T19:13:54.149Z,83.30
2023-04-14T19:16:21.999Z,83.50
2023-04-14T19:18:48.799Z,83.51
2023-04-14T19:21:15.836Z,83.63
2023-04-14T19:23:44.945Z,83.67
2023-04-14T19:26:13.008Z,83.72
2023-04-14T19:28:41.827Z,83.63
2023-04-14T19:31:09.113Z,83.93
2023-04-14T19:33:38.047Z,83.87
2023-04-14T19:36:13.870Z,83.82
2023-04-14T19:38:41.636Z,84.01
2023-04-14T19:41:08.945Z,84.12
2023-04-14T19:43:38.262Z,84.18
2023-04-14T19:46:06.585Z,84.01
2023-04-14T19:48:35.131Z,84.15
2023-04-14T19:51:03.463Z,84.22
2023-04-14T19:53:30.469Z,84.28
2023-04-14T19:56:01.372Z,84.33
2023-04-14T19:58:30.066Z,84.45
2023-04-14T20:00:58.428Z,84.76
2023-04-14T20:03:28.251Z,84.75
2023-04-14T20:05:56.234Z,84.59
2023-04-14T20:08:26.646Z,84.67
2023-04-14T20:10:54.453Z,84.76
2023-04-14T20:13:23.777Z,84.66
2023-04-14T20:15:58.207Z,84.74
2023-04-14T20:18:27.305Z,84.69
2023-04-14T20:20:55.949Z,84.87
2023-04-14T20:23:22.865Z,84.90
2023-04-14T20:25:52.927Z,84.88
2023-04-14T20:28:22.665Z,84.97
2023-04-14T20:30:50.682Z,84.83
2023-04-14T20:33:22.759Z,84.86
2023-04-14T20:35:51.010Z,84.68
2023-04-14T20:38:18.334Z,84.74
2023-04-14T20:40:49.855Z,84.30
2023-04-14T20:43:17.483Z,84.02
2023-04-14T20:45:44.471Z,83.07
2023-04-14T20:48:15.408Z,82.34
2023-04-14T20:50:48.767Z,81.97
2023-04-14T20:53:15.713Z,81.44
2023-04-14T20:55:45.810Z,80.52
2023-04-14T20:58:13.720Z,80.27
2023-04-14T21:00:40.504Z,79.46
2023-04-14T21:03:09.124Z,79.08
2023-04-14T21:05:38.464Z,78.53
2023-04-14T21:08:06.789Z,78.25
2023-04-14T21:10:33.640Z,78.24
2023-04-14T21:15:25.422Z,78.07
2023-04-14T21:15:56.298Z,77.66
2023-04-14T21:18:23.261Z,77.80
2023-04-14T21:20:58.807Z,77.81
2023-04-14T21:23:25.881Z,77.48
2023-04-14T21:25:52.825Z,77.28
2023-04-14T21:28:20.852Z,77.18
2023-04-14T21:30:49.726Z,77.12
2023-04-14T21:33:16.560Z,77.08
2023-04-14T21:35:44.022Z,77.13
2023-04-14T21:38:11.052Z,76.89
2023-04-14T21:40:38.343Z,76.90
2023-04-14T21:43:08.381Z,76.86
2023-04-14T21:45:35.405Z,77.02
2023-04-14T21:48:03.846Z,77.13
2023-04-14T21:50:33.230Z,77.14
2023-04-14T21:53:02.055Z,77.18
2023-04-14T21:55:30.254Z,77.30
2023-04-14T21:57:58.389Z,77.25
2023-04-14T22:00:26.099Z,77.43
2023-04-14T22:02:53.390Z,77.47
2023-04-14T22:05:20.702Z,77.05
2023-04-14T22:07:47.658Z,77.18
2023-04-14T22:10:15.012Z,76.91
2023-04-14T22:12:43.385Z,76.55
2023-04-14T22:15:11.259Z,76.26
2023-04-14T22:17:41.149Z,76.05
2023-04-14T22:20:09.132Z,76.07
2023-04-14T22:22:35.987Z,75.96
2023-04-14T22:25:07.069Z,76.06
2023-04-14T22:27:36.990Z,76.27
2023-04-14T22:30:06.882Z,76.31
2023-04-14T22:32:35.908Z,76.16
2023-04-14T22:35:04.651Z,76.22
2023-04-14T22:37:32.356Z,76.30
2023-04-14T22:40:02.496Z,76.33
2023-04-14T22:42:30.510Z,76.32
2023-04-14T22:44:57.247Z,76.46
2023-04-14T22:47:30.134Z,76.34
2023-04-14T22:49:57.070Z,76.21
2023-04-14T22:52:26.111Z,76.63
2023-04-14T22:54:55.953Z,76.78
2023-04-14T22:57:23.555Z,76.90
2023-04-14T22:59:52.506Z,76.99
2023-04-14T23:02:20.866Z,76.99
2023-04-14T23:04:47.875Z,77.22
2023-04-14T23:07:14.948Z,77.08
2023-04-14T23:09:57.082Z,77.43
2023-04-14T23:12:24.021Z,77.51
2023-04-14T23:14:50.878Z,77.69
2023-04-14T23:17:17.744Z,77.94
2023-04-14T23:19:47.517Z,78.02
2023-04-14T23:22:14.865Z,78.08
2023-04-14T23:24:43.130Z,78.11
2023-04-14T23:27:10.541Z,78.37
2023-04-14T23:29:37.801Z,78.39
2023-04-14T23:32:11.162Z,78.33
2023-04-14T23:34:39.567Z,78.56
2023-04-14T23:37:07.087Z,78.62
2023-04-14T23:39:33.885Z,78.73
2023-04-14T23:42:01.076Z,78.84
2023-04-14T23:44:28.442Z,78.89
2023-04-14T23:46:55.850Z,78.85
2023-04-14T23:49:35.374Z,78.67
2023-04-14T23:52:03.991Z,78.65
2023-04-14T23:54:31.278Z,78.72
2023-04-14T23:57:01.172Z,78.81
2023-04-14T23:59:28.485Z,78.93
